sensor_id;sensor_type;location;lat;lon;timestamp;P1;durP1;ratioP1;P2;durP2;ratioP2
54831;SDS011;40730;53.068;6.572;2024-02-28T00:00:27;279.45;;;38.40;;
54831;SDS011;40730;53.068;6.572;2024-02-28T00:02:52;292.85;;;39.55;;
54831;SDS011;40730;53.068;6.572;2024-02-28T00:05:18;261.10;;;37.58;;
54831;SDS011;40730;53.068;6.572;2024-02-28T00:07:43;315.50;;;40.70;;
54831;SDS011;40730;53.068;6.572;2024-02-28T00:10:09;254.82;;;38.92;;
54831;SDS011;40730;53.068;6.572;2024-02-28T00:12:35;272.20;;;38.55;;
54831;SDS011;40730;53.068;6.572;2024-02-28T00:15:00;252.57;;;36.58;;
54831;SDS011;40730;53.068;6.572;2024-02-28T00:17:26;222.52;;;36.22;;
54831;SDS011;40730;53.068;6.572;2024-02-28T00:19:52;242.98;;;35.75;;
54831;SDS011;40730;53.068;6.572;2024-02-28T00:22:17;267.20;;;40.60;;
54831;SDS011;40730;53.068;6.572;2024-02-28T00:24:43;231.95;;;35.13;;
54831;SDS011;40730;53.068;6.572;2024-02-28T00:27:09;241.38;;;39.67;;
54831;SDS011;40730;53.068;6.572;2024-02-28T00:29:35;210.25;;;33.78;;
54831;SDS011;40730;53.068;6.572;2024-02-28T00:32:00;196.52;;;35.15;;
54831;SDS011;40730;53.068;6.572;2024-02-28T00:34:26;153.50;;;30.58;;
54831;SDS011;40730;53.068;6.572;2024-02-28T00:36:51;173.80;;;33.03;;
54831;SDS011;40730;53.068;6.572;2024-02-28T00:39:17;187.57;;;33.55;;
54831;SDS011;40730;53.068;6.572;2024-02-28T00:41:42;179.85;;;32.50;;
54831;SDS011;40730;53.068;6.572;2024-02-28T00:44:08;233.55;;;37.30;;
54831;SDS011;40730;53.068;6.572;2024-02-28T00:46:34;233.00;;;35.90;;
54831;SDS011;40730;53.068;6.572;2024-02-28T00:48:59;255.15;;;35.83;;
54831;SDS011;40730;53.068;6.572;2024-02-28T00:51:25;223.80;;;36.53;;
54831;SDS011;40730;53.068;6.572;2024-02-28T00:53:50;217.23;;;36.53;;
54831;SDS011;40730;53.068;6.572;2024-02-28T00:56:16;252.38;;;38.33;;
54831;SDS011;40730;53.068;6.572;2024-02-28T00:58:43;222.18;;;35.00;;
54831;SDS011;40730;53.068;6.572;2024-02-28T01:01:09;201.40;;;35.85;;
54831;SDS011;40730;53.068;6.572;2024-02-28T01:03:35;224.98;;;37.58;;
54831;SDS011;40730;53.068;6.572;2024-02-28T01:06:00;213.38;;;36.83;;
54831;SDS011;40730;53.068;6.572;2024-02-28T01:08:26;175.52;;;33.97;;
54831;SDS011;40730;53.068;6.572;2024-02-28T01:10:52;157.10;;;32.97;;
54831;SDS011;40730;53.068;6.572;2024-02-28T01:13:17;179.82;;;33.70;;
54831;SDS011;40730;53.068;6.572;2024-02-28T01:15:43;166.57;;;33.60;;
54831;SDS011;40730;53.068;6.572;2024-02-28T01:18:09;183.13;;;32.53;;
54831;SDS011;40730;53.068;6.572;2024-02-28T01:20:35;213.63;;;36.08;;
54831;SDS011;40730;53.068;6.572;2024-02-28T01:23:01;192.90;;;36.13;;
54831;SDS011;40730;53.068;6.572;2024-02-28T01:25:26;178.27;;;34.75;;
54831;SDS011;40730;53.068;6.572;2024-02-28T01:27:52;150.43;;;31.95;;
54831;SDS011;40730;53.068;6.572;2024-02-28T01:30:17;189.63;;;34.63;;
54831;SDS011;40730;53.068;6.572;2024-02-28T01:32:44;167.95;;;33.40;;
54831;SDS011;40730;53.068;6.572;2024-02-28T01:35:09;156.35;;;33.33;;
54831;SDS011;40730;53.068;6.572;2024-02-28T01:37:35;170.57;;;35.20;;
54831;SDS011;40730;53.068;6.572;2024-02-28T01:40:00;160.68;;;31.13;;
54831;SDS011;40730;53.068;6.572;2024-02-28T01:42:26;165.88;;;33.80;;
54831;SDS011;40730;53.068;6.572;2024-02-28T01:44:52;193.95;;;33.78;;
54831;SDS011;40730;53.068;6.572;2024-02-28T01:47:17;191.13;;;36.80;;
54831;SDS011;40730;53.068;6.572;2024-02-28T01:49:43;205.85;;;35.35;;
54831;SDS011;40730;53.068;6.572;2024-02-28T01:52:11;193.38;;;35.65;;
54831;SDS011;40730;53.068;6.572;2024-02-28T01:54:38;166.70;;;33.67;;
54831;SDS011;40730;53.068;6.572;2024-02-28T01:57:03;154.85;;;32.83;;
54831;SDS011;40730;53.068;6.572;2024-02-28T01:59:31;163.40;;;33.17;;
54831;SDS011;40730;53.068;6.572;2024-02-28T02:01:57;205.18;;;35.85;;
54831;SDS011;40730;53.068;6.572;2024-02-28T02:04:23;211.10;;;35.58;;
54831;SDS011;40730;53.068;6.572;2024-02-28T02:06:49;201.35;;;34.72;;
54831;SDS011;40730;53.068;6.572;2024-02-28T02:09:16;171.07;;;34.13;;
54831;SDS011;40730;53.068;6.572;2024-02-28T02:11:42;173.30;;;34.33;;
54831;SDS011;40730;53.068;6.572;2024-02-28T02:14:07;159.90;;;30.52;;
54831;SDS011;40730;53.068;6.572;2024-02-28T02:16:33;175.18;;;33.22;;
54831;SDS011;40730;53.068;6.572;2024-02-28T02:18:59;162.88;;;30.55;;
54831;SDS011;40730;53.068;6.572;2024-02-28T02:21:26;174.98;;;32.67;;
54831;SDS011;40730;53.068;6.572;2024-02-28T02:23:55;159.52;;;32.65;;
54831;SDS011;40730;53.068;6.572;2024-02-28T02:26:21;199.27;;;35.70;;
54831;SDS011;40730;53.068;6.572;2024-02-28T02:28:46;185.95;;;32.92;;
54831;SDS011;40730;53.068;6.572;2024-02-28T02:31:12;190.68;;;34.00;;
54831;SDS011;40730;53.068;6.572;2024-02-28T02:33:38;198.10;;;34.30;;
54831;SDS011;40730;53.068;6.572;2024-02-28T02:36:04;185.35;;;35.15;;
54831;SDS011;40730;53.068;6.572;2024-02-28T02:38:30;149.38;;;31.52;;
54831;SDS011;40730;53.068;6.572;2024-02-28T02:40:55;149.82;;;30.90;;
54831;SDS011;40730;53.068;6.572;2024-02-28T02:43:21;149.18;;;32.65;;
54831;SDS011;40730;53.068;6.572;2024-02-28T02:45:46;139.98;;;31.77;;
54831;SDS011;40730;53.068;6.572;2024-02-28T02:48:12;138.82;;;32.67;;
54831;SDS011;40730;53.068;6.572;2024-02-28T02:50:38;134.35;;;32.78;;
54831;SDS011;40730;53.068;6.572;2024-02-28T02:53:04;134.60;;;31.90;;
54831;SDS011;40730;53.068;6.572;2024-02-28T02:55:29;146.48;;;33.47;;
54831;SDS011;40730;53.068;6.572;2024-02-28T02:57:55;161.77;;;34.78;;
54831;SDS011;40730;53.068;6.572;2024-02-28T03:00:21;157.07;;;33.17;;
54831;SDS011;40730;53.068;6.572;2024-02-28T03:02:47;146.07;;;34.72;;
54831;SDS011;40730;53.068;6.572;2024-02-28T03:05:13;144.75;;;33.88;;
54831;SDS011;40730;53.068;6.572;2024-02-28T03:07:38;142.05;;;35.13;;
54831;SDS011;40730;53.068;6.572;2024-02-28T03:10:04;135.50;;;33.33;;
54831;SDS011;40730;53.068;6.572;2024-02-28T03:12:31;151.77;;;35.03;;
54831;SDS011;40730;53.068;6.572;2024-02-28T03:14:56;141.20;;;33.42;;
54831;SDS011;40730;53.068;6.572;2024-02-28T03:17:22;138.88;;;34.83;;
54831;SDS011;40730;53.068;6.572;2024-02-28T03:19:48;137.45;;;35.13;;
54831;SDS011;40730;53.068;6.572;2024-02-28T03:22:13;130.55;;;32.33;;
54831;SDS011;40730;53.068;6.572;2024-02-28T03:24:39;141.85;;;34.70;;
54831;SDS011;40730;53.068;6.572;2024-02-28T03:27:05;134.60;;;35.17;;
54831;SDS011;40730;53.068;6.572;2024-02-28T03:29:30;136.85;;;34.67;;
54831;SDS011;40730;53.068;6.572;2024-02-28T03:31:57;135.75;;;34.55;;
54831;SDS011;40730;53.068;6.572;2024-02-28T03:34:23;138.52;;;34.17;;
54831;SDS011;40730;53.068;6.572;2024-02-28T03:36:49;134.85;;;34.60;;
54831;SDS011;40730;53.068;6.572;2024-02-28T03:39:15;135.25;;;32.55;;
54831;SDS011;40730;53.068;6.572;2024-02-28T03:41:41;130.48;;;33.50;;
54831;SDS011;40730;53.068;6.572;2024-02-28T03:44:07;118.60;;;33.60;;
54831;SDS011;40730;53.068;6.572;2024-02-28T03:46:33;128.27;;;32.83;;
54831;SDS011;40730;53.068;6.572;2024-02-28T03:48:59;115.75;;;31.33;;
54831;SDS011;40730;53.068;6.572;2024-02-28T03:51:24;106.82;;;31.52;;
54831;SDS011;40730;53.068;6.572;2024-02-28T03:53:50;110.53;;;32.05;;
54831;SDS011;40730;53.068;6.572;2024-02-28T03:56:25;109.32;;;31.05;;
54831;SDS011;40730;53.068;6.572;2024-02-28T03:58:51;113.28;;;32.05;;
54831;SDS011;40730;53.068;6.572;2024-02-28T04:01:17;114.32;;;33.10;;
54831;SDS011;40730;53.068;6.572;2024-02-28T04:03:43;110.93;;;31.73;;
54831;SDS011;40730;53.068;6.572;2024-02-28T04:06:09;127.22;;;34.45;;
54831;SDS011;40730;53.068;6.572;2024-02-28T04:08:35;110.57;;;31.67;;
54831;SDS011;40730;53.068;6.572;2024-02-28T04:11:01;113.28;;;32.25;;
54831;SDS011;40730;53.068;6.572;2024-02-28T04:13:26;111.53;;;30.98;;
54831;SDS011;40730;53.068;6.572;2024-02-28T04:15:52;109.82;;;31.10;;
54831;SDS011;40730;53.068;6.572;2024-02-28T04:18:18;107.18;;;32.30;;
54831;SDS011;40730;53.068;6.572;2024-02-28T04:20:43;105.20;;;30.33;;
54831;SDS011;40730;53.068;6.572;2024-02-28T04:23:09;96.05;;;31.58;;
54831;SDS011;40730;53.068;6.572;2024-02-28T04:25:34;105.60;;;30.80;;
54831;SDS011;40730;53.068;6.572;2024-02-28T04:28:01;104.10;;;30.73;;
54831;SDS011;40730;53.068;6.572;2024-02-28T04:30:27;105.63;;;31.60;;
54831;SDS011;40730;53.068;6.572;2024-02-28T04:32:53;102.97;;;31.70;;
54831;SDS011;40730;53.068;6.572;2024-02-28T04:35:19;93.60;;;27.95;;
54831;SDS011;40730;53.068;6.572;2024-02-28T04:37:45;104.47;;;30.25;;
54831;SDS011;40730;53.068;6.572;2024-02-28T04:40:11;103.50;;;31.75;;
54831;SDS011;40730;53.068;6.572;2024-02-28T04:42:37;99.75;;;31.35;;
54831;SDS011;40730;53.068;6.572;2024-02-28T04:45:04;101.43;;;32.70;;
54831;SDS011;40730;53.068;6.572;2024-02-28T04:47:30;95.60;;;31.67;;
54831;SDS011;40730;53.068;6.572;2024-02-28T04:49:56;106.78;;;31.17;;
54831;SDS011;40730;53.068;6.572;2024-02-28T04:52:22;98.93;;;29.85;;
54831;SDS011;40730;53.068;6.572;2024-02-28T04:54:48;101.57;;;31.08;;
54831;SDS011;40730;53.068;6.572;2024-02-28T04:57:13;103.05;;;31.50;;
54831;SDS011;40730;53.068;6.572;2024-02-28T04:59:41;94.47;;;30.65;;
54831;SDS011;40730;53.068;6.572;2024-02-28T05:02:07;87.72;;;29.17;;
54831;SDS011;40730;53.068;6.572;2024-02-28T05:04:33;98.13;;;31.70;;
54831;SDS011;40730;53.068;6.572;2024-02-28T05:06:59;100.03;;;31.77;;
54831;SDS011;40730;53.068;6.572;2024-02-28T05:09:24;89.43;;;29.98;;
54831;SDS011;40730;53.068;6.572;2024-02-28T05:11:50;96.25;;;31.42;;
54831;SDS011;40730;53.068;6.572;2024-02-28T05:14:16;89.82;;;29.67;;
54831;SDS011;40730;53.068;6.572;2024-02-28T05:16:41;92.00;;;29.83;;
54831;SDS011;40730;53.068;6.572;2024-02-28T05:19:07;86.80;;;30.13;;
54831;SDS011;40730;53.068;6.572;2024-02-28T05:21:39;80.40;;;28.48;;
54831;SDS011;40730;53.068;6.572;2024-02-28T05:24:06;84.25;;;28.92;;
54831;SDS011;40730;53.068;6.572;2024-02-28T05:26:31;84.38;;;29.70;;
54831;SDS011;40730;53.068;6.572;2024-02-28T05:28:59;80.82;;;29.27;;
54831;SDS011;40730;53.068;6.572;2024-02-28T05:31:25;78.22;;;28.98;;
54831;SDS011;40730;53.068;6.572;2024-02-28T05:33:51;79.75;;;29.80;;
54831;SDS011;40730;53.068;6.572;2024-02-28T05:36:22;76.10;;;27.10;;
54831;SDS011;40730;53.068;6.572;2024-02-28T05:38:48;71.65;;;28.13;;
54831;SDS011;40730;53.068;6.572;2024-02-28T05:41:15;75.95;;;29.58;;
54831;SDS011;40730;53.068;6.572;2024-02-28T05:43:41;77.47;;;28.83;;
54831;SDS011;40730;53.068;6.572;2024-02-28T05:46:07;72.75;;;28.08;;
54831;SDS011;40730;53.068;6.572;2024-02-28T05:48:32;76.57;;;30.92;;
54831;SDS011;40730;53.068;6.572;2024-02-28T05:51:00;68.18;;;27.77;;
54831;SDS011;40730;53.068;6.572;2024-02-28T05:53:26;70.07;;;26.75;;
54831;SDS011;40730;53.068;6.572;2024-02-28T05:55:52;68.25;;;26.58;;
54831;SDS011;40730;53.068;6.572;2024-02-28T05:58:19;71.78;;;27.67;;
54831;SDS011;40730;53.068;6.572;2024-02-28T06:00:44;71.85;;;28.23;;
54831;SDS011;40730;53.068;6.572;2024-02-28T06:03:10;70.40;;;26.95;;
54831;SDS011;40730;53.068;6.572;2024-02-28T06:05:36;66.63;;;26.67;;
54831;SDS011;40730;53.068;6.572;2024-02-28T06:08:01;69.47;;;28.52;;
54831;SDS011;40730;53.068;6.572;2024-02-28T06:10:27;68.78;;;27.17;;
54831;SDS011;40730;53.068;6.572;2024-02-28T06:12:53;74.47;;;28.85;;
54831;SDS011;40730;53.068;6.572;2024-02-28T06:15:19;78.80;;;29.55;;
54831;SDS011;40730;53.068;6.572;2024-02-28T06:17:44;67.88;;;28.88;;
54831;SDS011;40730;53.068;6.572;2024-02-28T06:20:10;75.03;;;29.80;;
54831;SDS011;40730;53.068;6.572;2024-02-28T06:22:36;73.90;;;30.08;;
54831;SDS011;40730;53.068;6.572;2024-02-28T06:25:01;75.45;;;29.00;;
54831;SDS011;40730;53.068;6.572;2024-02-28T06:27:27;76.45;;;29.20;;
54831;SDS011;40730;53.068;6.572;2024-02-28T06:29:53;66.53;;;27.65;;
54831;SDS011;40730;53.068;6.572;2024-02-28T06:32:18;77.13;;;30.42;;
54831;SDS011;40730;53.068;6.572;2024-02-28T06:34:44;66.43;;;28.48;;
54831;SDS011;40730;53.068;6.572;2024-02-28T06:37:09;70.93;;;29.65;;
54831;SDS011;40730;53.068;6.572;2024-02-28T06:39:35;74.68;;;29.63;;
54831;SDS011;40730;53.068;6.572;2024-02-28T06:42:00;71.72;;;31.02;;
54831;SDS011;40730;53.068;6.572;2024-02-28T06:44:26;70.60;;;31.15;;
54831;SDS011;40730;53.068;6.572;2024-02-28T06:46:51;70.30;;;30.25;;
54831;SDS011;40730;53.068;6.572;2024-02-28T06:49:17;67.53;;;29.13;;
54831;SDS011;40730;53.068;6.572;2024-02-28T06:51:43;67.53;;;29.08;;
54831;SDS011;40730;53.068;6.572;2024-02-28T06:54:09;69.80;;;30.02;;
54831;SDS011;40730;53.068;6.572;2024-02-28T06:56:35;73.35;;;29.13;;
54831;SDS011;40730;53.068;6.572;2024-02-28T06:59:01;68.95;;;29.17;;
54831;SDS011;40730;53.068;6.572;2024-02-28T07:01:28;67.43;;;28.92;;
54831;SDS011;40730;53.068;6.572;2024-02-28T07:03:54;69.65;;;30.67;;
54831;SDS011;40730;53.068;6.572;2024-02-28T07:06:20;65.72;;;28.67;;
54831;SDS011;40730;53.068;6.572;2024-02-28T07:08:45;60.95;;;27.27;;
54831;SDS011;40730;53.068;6.572;2024-02-28T07:11:14;66.55;;;28.30;;
54831;SDS011;40730;53.068;6.572;2024-02-28T07:13:40;68.65;;;28.40;;
54831;SDS011;40730;53.068;6.572;2024-02-28T07:16:06;60.45;;;27.77;;
54831;SDS011;40730;53.068;6.572;2024-02-28T07:18:32;66.70;;;27.70;;
54831;SDS011;40730;53.068;6.572;2024-02-28T07:20:58;60.55;;;26.83;;
54831;SDS011;40730;53.068;6.572;2024-02-28T07:23:24;58.03;;;26.13;;
54831;SDS011;40730;53.068;6.572;2024-02-28T07:25:50;57.60;;;27.08;;
54831;SDS011;40730;53.068;6.572;2024-02-28T07:28:16;54.33;;;24.80;;
54831;SDS011;40730;53.068;6.572;2024-02-28T07:30:41;54.70;;;25.52;;
54831;SDS011;40730;53.068;6.572;2024-02-28T07:33:10;57.80;;;26.35;;
54831;SDS011;40730;53.068;6.572;2024-02-28T07:35:48;55.03;;;26.52;;
54831;SDS011;40730;53.068;6.572;2024-02-28T07:38:15;58.80;;;26.45;;
54831;SDS011;40730;53.068;6.572;2024-02-28T07:40:42;52.10;;;25.00;;
54831;SDS011;40730;53.068;6.572;2024-02-28T07:43:08;54.72;;;24.38;;
54831;SDS011;40730;53.068;6.572;2024-02-28T07:45:34;54.58;;;25.85;;
54831;SDS011;40730;53.068;6.572;2024-02-28T07:48:00;53.95;;;24.70;;
54831;SDS011;40730;53.068;6.572;2024-02-28T07:50:25;56.58;;;26.00;;
54831;SDS011;40730;53.068;6.572;2024-02-28T07:52:53;50.85;;;24.77;;
54831;SDS011;40730;53.068;6.572;2024-02-28T07:55:20;59.40;;;25.15;;
54831;SDS011;40730;53.068;6.572;2024-02-28T07:57:50;55.67;;;25.80;;
54831;SDS011;40730;53.068;6.572;2024-02-28T08:00:17;52.47;;;25.00;;
54831;SDS011;40730;53.068;6.572;2024-02-28T08:02:44;55.75;;;25.05;;
54831;SDS011;40730;53.068;6.572;2024-02-28T08:05:09;58.42;;;27.90;;
54831;SDS011;40730;53.068;6.572;2024-02-28T08:07:35;57.17;;;24.30;;
54831;SDS011;40730;53.068;6.572;2024-02-28T08:10:01;54.53;;;25.75;;
54831;SDS011;40730;53.068;6.572;2024-02-28T08:12:30;57.17;;;25.90;;
54831;SDS011;40730;53.068;6.572;2024-02-28T08:14:56;67.05;;;27.13;;
54831;SDS011;40730;53.068;6.572;2024-02-28T08:17:21;62.78;;;26.80;;
54831;SDS011;40730;53.068;6.572;2024-02-28T08:19:47;61.45;;;26.27;;
54831;SDS011;40730;53.068;6.572;2024-02-28T08:22:12;62.67;;;28.38;;
54831;SDS011;40730;53.068;6.572;2024-02-28T08:24:38;60.20;;;26.95;;
54831;SDS011;40730;53.068;6.572;2024-02-28T08:27:04;57.08;;;26.20;;
54831;SDS011;40730;53.068;6.572;2024-02-28T08:29:29;65.15;;;26.48;;
54831;SDS011;40730;53.068;6.572;2024-02-28T08:31:55;63.83;;;26.42;;
54831;SDS011;40730;53.068;6.572;2024-02-28T08:34:20;59.75;;;27.95;;
54831;SDS011;40730;53.068;6.572;2024-02-28T08:36:46;63.65;;;27.58;;
54831;SDS011;40730;53.068;6.572;2024-02-28T08:39:11;62.20;;;28.33;;
54831;SDS011;40730;53.068;6.572;2024-02-28T08:41:37;68.00;;;29.70;;
54831;SDS011;40730;53.068;6.572;2024-02-28T08:44:03;71.90;;;30.20;;
54831;SDS011;40730;53.068;6.572;2024-02-28T08:46:28;67.43;;;28.08;;
54831;SDS011;40730;53.068;6.572;2024-02-28T08:48:54;60.40;;;27.65;;
54831;SDS011;40730;53.068;6.572;2024-02-28T08:51:20;65.78;;;28.58;;
54831;SDS011;40730;53.068;6.572;2024-02-28T08:53:45;63.83;;;28.38;;
54831;SDS011;40730;53.068;6.572;2024-02-28T08:56:11;62.10;;;28.30;;
54831;SDS011;40730;53.068;6.572;2024-02-28T08:58:36;64.68;;;28.95;;
54831;SDS011;40730;53.068;6.572;2024-02-28T09:01:02;65.05;;;29.73;;
54831;SDS011;40730;53.068;6.572;2024-02-28T09:03:29;61.53;;;28.73;;
54831;SDS011;40730;53.068;6.572;2024-02-28T09:05:54;65.80;;;30.42;;
54831;SDS011;40730;53.068;6.572;2024-02-28T09:08:20;65.90;;;30.10;;
54831;SDS011;40730;53.068;6.572;2024-02-28T09:10:46;59.00;;;28.42;;
54831;SDS011;40730;53.068;6.572;2024-02-28T09:13:12;61.70;;;29.95;;
54831;SDS011;40730;53.068;6.572;2024-02-28T09:15:38;56.00;;;29.58;;
54831;SDS011;40730;53.068;6.572;2024-02-28T09:18:04;58.92;;;27.42;;
54831;SDS011;40730;53.068;6.572;2024-02-28T09:20:29;55.08;;;27.80;;
54831;SDS011;40730;53.068;6.572;2024-02-28T09:22:55;56.35;;;27.80;;
54831;SDS011;40730;53.068;6.572;2024-02-28T09:25:21;55.03;;;27.13;;
54831;SDS011;40730;53.068;6.572;2024-02-28T09:27:47;55.83;;;27.88;;
54831;SDS011;40730;53.068;6.572;2024-02-28T09:30:12;59.92;;;29.88;;
54831;SDS011;40730;53.068;6.572;2024-02-28T09:32:38;51.90;;;27.17;;
54831;SDS011;40730;53.068;6.572;2024-02-28T09:35:04;54.35;;;27.20;;
54831;SDS011;40730;53.068;6.572;2024-02-28T09:37:30;54.85;;;27.10;;
54831;SDS011;40730;53.068;6.572;2024-02-28T09:39:56;52.45;;;27.38;;
54831;SDS011;40730;53.068;6.572;2024-02-28T09:42:22;51.92;;;27.45;;
54831;SDS011;40730;53.068;6.572;2024-02-28T09:44:48;57.08;;;28.80;;
54831;SDS011;40730;53.068;6.572;2024-02-28T09:47:14;53.58;;;27.42;;
54831;SDS011;40730;53.068;6.572;2024-02-28T09:49:40;53.20;;;27.33;;
54831;SDS011;40730;53.068;6.572;2024-02-28T09:52:08;53.03;;;27.02;;
54831;SDS011;40730;53.068;6.572;2024-02-28T09:54:33;48.00;;;25.58;;
54831;SDS011;40730;53.068;6.572;2024-02-28T09:56:59;52.10;;;26.33;;
54831;SDS011;40730;53.068;6.572;2024-02-28T09:59:25;48.42;;;27.83;;
54831;SDS011;40730;53.068;6.572;2024-02-28T10:01:57;54.80;;;28.10;;
54831;SDS011;40730;53.068;6.572;2024-02-28T10:04:25;52.63;;;26.15;;
54831;SDS011;40730;53.068;6.572;2024-02-28T10:06:52;49.55;;;25.92;;
54831;SDS011;40730;53.068;6.572;2024-02-28T10:09:18;49.53;;;28.10;;
54831;SDS011;40730;53.068;6.572;2024-02-28T10:11:44;50.38;;;27.08;;
54831;SDS011;40730;53.068;6.572;2024-02-28T10:14:11;47.65;;;27.70;;
54831;SDS011;40730;53.068;6.572;2024-02-28T10:16:37;48.70;;;26.05;;
54831;SDS011;40730;53.068;6.572;2024-02-28T10:19:04;48.58;;;26.17;;
54831;SDS011;40730;53.068;6.572;2024-02-28T10:21:30;50.67;;;25.88;;
54831;SDS011;40730;53.068;6.572;2024-02-28T10:23:59;46.08;;;24.92;;
54831;SDS011;40730;53.068;6.572;2024-02-28T10:26:25;46.30;;;25.45;;
54831;SDS011;40730;53.068;6.572;2024-02-28T10:28:51;45.72;;;25.10;;
54831;SDS011;40730;53.068;6.572;2024-02-28T10:31:16;41.22;;;24.25;;
54831;SDS011;40730;53.068;6.572;2024-02-28T10:33:42;43.33;;;25.60;;
54831;SDS011;40730;53.068;6.572;2024-02-28T10:36:08;43.47;;;25.92;;
54831;SDS011;40730;53.068;6.572;2024-02-28T10:38:34;47.28;;;26.48;;
54831;SDS011;40730;53.068;6.572;2024-02-28T10:41:01;45.42;;;24.83;;
54831;SDS011;40730;53.068;6.572;2024-02-28T10:43:28;45.55;;;26.65;;
54831;SDS011;40730;53.068;6.572;2024-02-28T10:45:59;45.17;;;24.80;;
54831;SDS011;40730;53.068;6.572;2024-02-28T10:48:26;42.42;;;24.33;;
54831;SDS011;40730;53.068;6.572;2024-02-28T10:50:52;45.42;;;26.17;;
54831;SDS011;40730;53.068;6.572;2024-02-28T10:53:20;41.40;;;23.98;;
54831;SDS011;40730;53.068;6.572;2024-02-28T10:55:48;43.28;;;24.00;;
54831;SDS011;40730;53.068;6.572;2024-02-28T10:58:14;42.75;;;24.92;;
54831;SDS011;40730;53.068;6.572;2024-02-28T11:00:41;42.35;;;25.00;;
54831;SDS011;40730;53.068;6.572;2024-02-28T11:03:12;40.92;;;24.27;;
54831;SDS011;40730;53.068;6.572;2024-02-28T11:05:41;41.85;;;24.17;;
54831;SDS011;40730;53.068;6.572;2024-02-28T11:08:11;40.55;;;23.33;;
54831;SDS011;40730;53.068;6.572;2024-02-28T11:10:55;42.03;;;24.33;;
54831;SDS011;40730;53.068;6.572;2024-02-28T11:13:27;39.22;;;24.10;;
54831;SDS011;40730;53.068;6.572;2024-02-28T11:15:53;40.80;;;23.58;;
54831;SDS011;40730;53.068;6.572;2024-02-28T11:18:20;35.78;;;23.10;;
54831;SDS011;40730;53.068;6.572;2024-02-28T11:20:46;38.30;;;23.88;;
54831;SDS011;40730;53.068;6.572;2024-02-28T11:23:14;39.55;;;23.77;;
54831;SDS011;40730;53.068;6.572;2024-02-28T11:25:42;41.10;;;24.60;;
54831;SDS011;40730;53.068;6.572;2024-02-28T11:28:08;41.33;;;24.90;;
54831;SDS011;40730;53.068;6.572;2024-02-28T11:30:34;42.95;;;26.20;;
54831;SDS011;40730;53.068;6.572;2024-02-28T11:33:00;39.97;;;24.55;;
54831;SDS011;40730;53.068;6.572;2024-02-28T11:35:26;42.33;;;25.17;;
54831;SDS011;40730;53.068;6.572;2024-02-28T11:37:53;38.35;;;25.13;;
54831;SDS011;40730;53.068;6.572;2024-02-28T11:40:22;39.67;;;25.58;;
54831;SDS011;40730;53.068;6.572;2024-02-28T11:42:52;44.55;;;26.85;;
54831;SDS011;40730;53.068;6.572;2024-02-28T11:45:18;43.88;;;25.90;;
54831;SDS011;40730;53.068;6.572;2024-02-28T11:47:44;45.92;;;26.80;;
54831;SDS011;40730;53.068;6.572;2024-02-28T11:50:11;41.97;;;26.33;;
54831;SDS011;40730;53.068;6.572;2024-02-28T11:52:36;37.05;;;23.33;;
54831;SDS011;40730;53.068;6.572;2024-02-28T11:55:02;37.65;;;24.75;;
54831;SDS011;40730;53.068;6.572;2024-02-28T11:57:28;44.25;;;25.92;;
54831;SDS011;40730;53.068;6.572;2024-02-28T11:59:58;35.78;;;23.80;;
54831;SDS011;40730;53.068;6.572;2024-02-28T12:02:29;40.15;;;25.35;;
54831;SDS011;40730;53.068;6.572;2024-02-28T12:04:59;38.50;;;25.40;;
54831;SDS011;40730;53.068;6.572;2024-02-28T12:07:25;39.22;;;24.50;;
54831;SDS011;40730;53.068;6.572;2024-02-28T12:09:53;39.78;;;25.05;;
54831;SDS011;40730;53.068;6.572;2024-02-28T12:12:19;38.03;;;24.35;;
54831;SDS011;40730;53.068;6.572;2024-02-28T12:14:45;35.40;;;23.40;;
54831;SDS011;40730;53.068;6.572;2024-02-28T12:17:11;38.25;;;25.08;;
54831;SDS011;40730;53.068;6.572;2024-02-28T12:19:38;35.55;;;22.67;;
54831;SDS011;40730;53.068;6.572;2024-02-28T12:22:04;35.65;;;22.33;;
54831;SDS011;40730;53.068;6.572;2024-02-28T12:24:29;33.17;;;22.30;;
54831;SDS011;40730;53.068;6.572;2024-02-28T12:26:55;37.28;;;24.38;;
54831;SDS011;40730;53.068;6.572;2024-02-28T12:29:21;37.28;;;25.10;;
54831;SDS011;40730;53.068;6.572;2024-02-28T12:31:46;34.58;;;22.92;;
54831;SDS011;40730;53.068;6.572;2024-02-28T12:34:12;34.42;;;22.52;;
54831;SDS011;40730;53.068;6.572;2024-02-28T12:36:40;38.78;;;23.52;;
54831;SDS011;40730;53.068;6.572;2024-02-28T12:39:06;31.98;;;23.00;;
54831;SDS011;40730;53.068;6.572;2024-02-28T12:41:36;35.10;;;22.75;;
54831;SDS011;40730;53.068;6.572;2024-02-28T12:44:05;37.40;;;24.02;;
54831;SDS011;40730;53.068;6.572;2024-02-28T12:46:31;35.50;;;22.83;;
54831;SDS011;40730;53.068;6.572;2024-02-28T12:49:00;33.15;;;22.50;;
54831;SDS011;40730;53.068;6.572;2024-02-28T12:51:42;32.60;;;22.17;;
54831;SDS011;40730;53.068;6.572;2024-02-28T12:54:10;32.42;;;23.00;;
54831;SDS011;40730;53.068;6.572;2024-02-28T12:56:36;33.03;;;21.77;;
54831;SDS011;40730;53.068;6.572;2024-02-28T12:59:03;33.42;;;22.70;;
54831;SDS011;40730;53.068;6.572;2024-02-28T13:01:30;32.35;;;22.50;;
54831;SDS011;40730;53.068;6.572;2024-02-28T13:03:56;30.55;;;22.05;;
54831;SDS011;40730;53.068;6.572;2024-02-28T13:06:22;35.15;;;24.30;;
54831;SDS011;40730;53.068;6.572;2024-02-28T13:08:48;30.95;;;21.50;;
54831;SDS011;40730;53.068;6.572;2024-02-28T13:11:17;30.70;;;22.88;;
54831;SDS011;40730;53.068;6.572;2024-02-28T13:13:44;31.80;;;23.73;;
54831;SDS011;40730;53.068;6.572;2024-02-28T13:16:11;29.75;;;22.83;;
54831;SDS011;40730;53.068;6.572;2024-02-28T13:18:37;31.33;;;22.08;;
54831;SDS011;40730;53.068;6.572;2024-02-28T13:21:03;29.88;;;22.00;;
54831;SDS011;40730;53.068;6.572;2024-02-28T13:23:29;30.95;;;22.65;;
54831;SDS011;40730;53.068;6.572;2024-02-28T13:25:56;34.60;;;23.75;;
54831;SDS011;40730;53.068;6.572;2024-02-28T13:28:22;33.40;;;22.73;;
54831;SDS011;40730;53.068;6.572;2024-02-28T13:30:55;34.20;;;23.05;;
54831;SDS011;40730;53.068;6.572;2024-02-28T13:33:24;33.40;;;22.27;;
54831;SDS011;40730;53.068;6.572;2024-02-28T13:35:50;32.78;;;22.83;;
54831;SDS011;40730;53.068;6.572;2024-02-28T13:38:17;32.25;;;22.55;;
54831;SDS011;40730;53.068;6.572;2024-02-28T13:40:44;29.73;;;21.25;;
54831;SDS011;40730;53.068;6.572;2024-02-28T13:43:11;28.90;;;20.95;;
54831;SDS011;40730;53.068;6.572;2024-02-28T13:45:55;30.95;;;22.85;;
54831;SDS011;40730;53.068;6.572;2024-02-28T13:48:25;31.90;;;23.45;;
54831;SDS011;40730;53.068;6.572;2024-02-28T13:50:52;34.17;;;26.08;;
54831;SDS011;40730;53.068;6.572;2024-02-28T13:53:18;31.30;;;23.73;;
54831;SDS011;40730;53.068;6.572;2024-02-28T13:55:44;34.88;;;24.80;;
54831;SDS011;40730;53.068;6.572;2024-02-28T13:58:10;32.08;;;23.17;;
54831;SDS011;40730;53.068;6.572;2024-02-28T14:00:37;35.30;;;25.20;;
54831;SDS011;40730;53.068;6.572;2024-02-28T14:03:03;33.90;;;24.73;;
54831;SDS011;40730;53.068;6.572;2024-02-28T14:05:29;34.50;;;25.05;;
54831;SDS011;40730;53.068;6.572;2024-02-28T14:07:55;34.67;;;24.85;;
54831;SDS011;40730;53.068;6.572;2024-02-28T14:10:22;33.13;;;24.77;;